createdAt,value
2018-06-03T00:01:42.697Z,9.90
2018-06-03T00:04:11.527Z,10.37
2018-06-03T00:06:40.312Z,14.97
2018-06-03T00:09:09.090Z,13.83
2018-06-03T00:11:38.094Z,13.60
2018-06-03T00:14:06.883Z,9.77
2018-06-03T00:16:35.672Z,9.73
2018-06-03T00:19:04.498Z,14.50
2018-06-03T00:21:49.470Z,9.80
2018-06-03T00:24:18.271Z,13.30
2018-06-03T00:26:47.485Z,11.93
2018-06-03T00:29:16.276Z,12.73
2018-06-03T00:31:45.132Z,13.83
2018-06-03T00:34:13.954Z,9.80
2018-06-03T00:36:46.770Z,10.30
2018-06-03T00:39:15.625Z,13.93
2018-06-03T00:41:44.444Z,14.73
2018-06-03T00:44:13.258Z,10.40
2018-06-03T00:46:42.067Z,9.80
2018-06-03T00:49:10.970Z,13.33
2018-06-03T00:51:39.821Z,10.53
2018-06-03T00:54:08.625Z,10.80
2018-06-03T00:56:48.505Z,10.70
2018-06-03T00:59:17.366Z,17.07
2018-06-03T01:01:46.250Z,11.00
2018-06-03T01:04:15.062Z,11.70
2018-06-03T01:06:43.826Z,13.10
2018-06-03T01:09:12.690Z,13.70
2018-06-03T01:11:41.475Z,11.17
2018-06-03T01:14:11.043Z,15.93
2018-06-03T01:16:39.893Z,14.23
2018-06-03T01:19:08.690Z,13.87
2018-06-03T01:21:37.474Z,13.47
2018-06-03T01:24:06.263Z,15.77
2018-06-03T01:26:35.106Z,15.20
2018-06-03T01:29:03.886Z,11.50
2018-06-03T01:31:32.722Z,10.57
2018-06-03T01:34:01.533Z,11.27
2018-06-03T01:36:30.411Z,11.67
2018-06-03T01:38:59.193Z,11.67
2018-06-03T01:41:28.002Z,10.20
2018-06-03T01:43:56.795Z,12.20
2018-06-03T01:46:25.590Z,9.80
2018-06-03T01:48:54.378Z,8.83
2018-06-03T01:51:23.187Z,8.20
2018-06-03T01:53:52.014Z,13.80
2018-06-03T01:56:20.819Z,7.70
2018-06-03T01:58:49.600Z,11.37
2018-06-03T02:01:18.394Z,9.77
2018-06-03T02:03:47.149Z,7.97
2018-06-03T02:06:15.939Z,10.10
2018-06-03T02:08:44.784Z,10.27
2018-06-03T02:11:13.604Z,11.97
2018-06-03T02:13:42.373Z,10.23
2018-06-03T02:16:11.205Z,9.13
2018-06-03T02:18:39.960Z,8.93
2018-06-03T02:21:08.767Z,9.33
2018-06-03T02:23:37.538Z,8.27
2018-06-03T02:26:06.326Z,8.73
2018-06-03T02:28:35.139Z,9.30
2018-06-03T02:31:03.944Z,9.50
2018-06-03T02:33:32.754Z,8.23
2018-06-03T02:36:01.558Z,7.80
2018-06-03T02:38:30.530Z,8.47
2018-06-03T02:40:59.344Z,8.30
2018-06-03T02:43:28.125Z,11.50
2018-06-03T02:45:56.919Z,12.23
2018-06-03T02:48:25.771Z,14.57
2018-06-03T02:50:54.654Z,10.53
2018-06-03T02:53:23.846Z,9.87
2018-06-03T02:55:52.741Z,11.80
2018-06-03T02:58:21.565Z,11.40
2018-06-03T03:00:50.384Z,11.93
2018-06-03T03:03:19.151Z,12.40
2018-06-03T03:05:47.979Z,9.07
2018-06-03T03:08:16.831Z,9.60
2018-06-03T03:10:45.645Z,9.00
2018-06-03T03:13:14.454Z,10.77
2018-06-03T03:15:43.282Z,13.90
2018-06-03T03:18:12.143Z,9.03
2018-06-03T03:20:40.975Z,9.60
2018-06-03T03:23:09.811Z,11.63
2018-06-03T03:25:38.591Z,10.47
2018-06-03T03:28:07.390Z,10.50
2018-06-03T03:30:36.613Z,10.10
2018-06-03T03:33:05.650Z,9.17
2018-06-03T03:35:34.466Z,9.23
2018-06-03T03:38:03.326Z,9.47
2018-06-03T03:40:38.692Z,9.07
2018-06-03T03:43:07.529Z,9.53
2018-06-03T03:45:36.336Z,9.77
2018-06-03T03:48:05.186Z,10.13
2018-06-03T03:50:34.045Z,9.50
2018-06-03T03:53:02.817Z,10.50
2018-06-03T03:55:31.628Z,13.60
2018-06-03T03:58:00.448Z,14.13
2018-06-03T04:00:29.289Z,16.10
2018-06-03T04:02:58.120Z,11.20
2018-06-03T04:05:26.976Z,17.37
2018-06-03T04:07:55.773Z,12.17
2018-06-03T04:10:24.575Z,14.73
2018-06-03T04:12:53.397Z,12.23
2018-06-03T04:15:22.274Z,10.33
2018-06-03T04:17:51.121Z,14.03
2018-06-03T04:20:20.104Z,11.60
2018-06-03T04:22:48.882Z,11.70
2018-06-03T04:25:17.695Z,10.40
2018-06-03T04:27:46.474Z,15.33
2018-06-03T04:30:15.294Z,15.30
2018-06-03T04:32:44.075Z,12.70
2018-06-03T04:35:12.890Z,13.80
2018-06-03T04:37:41.664Z,12.93
2018-06-03T04:40:10.474Z,11.13
2018-06-03T04:42:39.426Z,13.17
2018-06-03T04:45:08.193Z,12.07
2018-06-03T04:47:36.986Z,12.00
2018-06-03T04:50:05.978Z,10.63
2018-06-03T04:52:34.847Z,11.10
2018-06-03T04:55:03.600Z,11.10
2018-06-03T04:57:32.590Z,17.33
2018-06-03T05:00:01.347Z,9.83
2018-06-03T05:02:30.127Z,14.77
2018-06-03T05:04:59.065Z,14.50
2018-06-03T05:07:27.900Z,10.07
2018-06-03T05:09:56.748Z,11.23
2018-06-03T05:12:25.548Z,11.10
2018-06-03T05:14:54.436Z,10.33
2018-06-03T05:17:23.351Z,11.13
2018-06-03T05:19:52.244Z,12.83
2018-06-03T05:22:21.067Z,9.47
2018-06-03T05:24:49.893Z,10.60
2018-06-03T05:27:18.662Z,10.70
2018-06-03T05:29:47.462Z,14.20
2018-06-03T05:32:16.262Z,10.77
2018-06-03T05:34:45.152Z,13.73
2018-06-03T05:37:13.985Z,10.37
2018-06-03T05:39:42.824Z,12.13
2018-06-03T05:42:11.671Z,10.93
2018-06-03T05:44:40.586Z,10.73
2018-06-03T05:47:09.446Z,13.83
2018-06-03T05:49:38.228Z,19.27
2018-06-03T05:52:07.142Z,15.57
2018-06-03T05:54:35.949Z,14.93
2018-06-03T05:57:04.751Z,12.37
2018-06-03T05:59:33.583Z,14.57
2018-06-03T06:02:02.434Z,13.47
2018-06-03T06:04:31.267Z,14.13
2018-06-03T06:07:00.122Z,13.97
2018-06-03T06:09:28.940Z,11.50
2018-06-03T06:11:57.720Z,14.23
2018-06-03T06:14:26.525Z,17.17
2018-06-03T06:16:55.370Z,12.37
2018-06-03T06:19:24.178Z,15.20
2018-06-03T06:21:53.003Z,12.47
2018-06-03T06:24:21.802Z,15.43
2018-06-03T06:26:57.080Z,12.50
2018-06-03T06:29:25.896Z,11.63
2018-06-03T06:31:55.024Z,15.77
2018-06-03T06:34:23.912Z,13.50
2018-06-03T06:36:52.715Z,13.73
2018-06-03T06:39:21.586Z,14.37
2018-06-03T06:41:50.687Z,17.50
2018-06-03T06:44:19.545Z,14.30
2018-06-03T06:46:48.368Z,22.23
2018-06-03T06:49:17.328Z,18.50
2018-06-03T06:51:46.159Z,21.90
2018-06-03T06:54:14.927Z,17.27
2018-06-03T06:56:43.731Z,16.03
2018-06-03T06:59:12.526Z,15.07
2018-06-03T07:01:41.340Z,14.03
2018-06-03T07:04:10.118Z,13.17
2018-06-03T07:06:38.988Z,16.63
2018-06-03T07:09:08.157Z,18.50
2018-06-03T07:11:37.029Z,14.00
2018-06-03T07:14:05.835Z,14.93
2018-06-03T07:16:34.727Z,13.27
2018-06-03T07:19:03.567Z,11.37
2018-06-03T07:21:32.363Z,13.27
2018-06-03T07:24:01.157Z,17.40
2018-06-03T07:26:29.892Z,15.17
2018-06-03T07:28:58.682Z,13.80
2018-06-03T07:31:27.468Z,16.33
2018-06-03T07:33:56.299Z,18.63
2018-06-03T07:36:25.089Z,17.23
2018-06-03T07:38:54.063Z,12.03
2018-06-03T07:41:22.897Z,14.00
2018-06-03T07:43:51.720Z,11.17
2018-06-03T07:46:20.846Z,12.43
2018-06-03T07:48:49.632Z,9.43
2018-06-03T07:51:18.465Z,15.17
2018-06-03T07:53:47.355Z,9.60
2018-06-03T07:56:16.217Z,7.70
2018-06-03T07:58:45.041Z,9.00
2018-06-03T08:01:13.796Z,11.90
2018-06-03T08:03:42.563Z,10.17
2018-06-03T08:06:11.346Z,9.07
2018-06-03T08:08:40.187Z,6.10
2018-06-03T08:11:09.016Z,7.37
2018-06-03T08:13:37.886Z,8.03
2018-06-03T08:16:06.709Z,7.40
2018-06-03T08:18:35.469Z,7.30
2018-06-03T08:21:04.299Z,7.37
2018-06-03T08:23:33.128Z,14.90
2018-06-03T08:26:01.908Z,11.70
2018-06-03T08:28:30.706Z,11.10
2018-06-03T08:30:59.827Z,9.57
2018-06-03T08:33:28.613Z,8.40
2018-06-03T08:35:57.441Z,7.60
2018-06-03T08:38:26.412Z,7.77
2018-06-03T08:40:55.192Z,8.23
2018-06-03T08:43:23.969Z,8.43
2018-06-03T08:45:52.739Z,10.80
2018-06-03T08:48:21.481Z,7.33
2018-06-03T08:50:51.063Z,7.30
2018-06-03T08:53:19.890Z,10.27
2018-06-03T08:55:48.669Z,8.50
2018-06-03T08:58:17.516Z,9.30
2018-06-03T09:00:46.312Z,10.33
2018-06-03T09:03:15.105Z,6.67
2018-06-03T09:05:44.249Z,12.13
2018-06-03T09:08:13.066Z,7.87
2018-06-03T09:10:41.848Z,7.27
2018-06-03T09:13:10.750Z,7.33
2018-06-03T09:15:39.667Z,10.47
2018-06-03T09:18:08.508Z,9.90
2018-06-03T09:20:37.299Z,11.00
2018-06-03T09:23:06.544Z,7.43
2018-06-03T09:25:35.335Z,6.97
2018-06-03T09:28:04.133Z,11.60
2018-06-03T09:30:32.949Z,18.03
2018-06-03T09:33:01.738Z,8.80
2018-06-03T09:35:30.575Z,13.33
2018-06-03T09:37:59.414Z,13.00
2018-06-03T09:40:28.245Z,6.73
2018-06-03T09:42:57.080Z,10.40
2018-06-03T09:45:26.204Z,9.17
2018-06-03T09:47:55.001Z,7.20
2018-06-03T09:50:23.866Z,8.40
2018-06-03T09:52:52.727Z,7.53
2018-06-03T09:55:21.555Z,7.67
2018-06-03T09:57:50.321Z,7.33
2018-06-03T10:00:24.021Z,7.50
2018-06-03T10:02:53.072Z,8.90
2018-06-03T10:05:21.838Z,6.60
2018-06-03T10:07:50.655Z,7.27
2018-06-03T10:10:19.491Z,7.97
2018-06-03T10:12:48.412Z,7.30
2018-06-03T10:15:17.219Z,7.03
2018-06-03T10:17:46.028Z,6.83
2018-06-03T10:20:14.891Z,9.27
2018-06-03T10:22:43.765Z,8.93
2018-06-03T10:25:12.586Z,6.97
2018-06-03T10:27:41.412Z,11.40
2018-06-03T10:30:10.175Z,15.43
2018-06-03T10:32:38.994Z,10.33
2018-06-03T10:35:07.746Z,5.57
2018-06-03T10:37:36.562Z,7.17
2018-06-03T10:40:05.390Z,6.20
2018-06-03T10:42:34.265Z,5.93
2018-06-03T10:45:03.096Z,7.30
2018-06-03T10:47:31.890Z,9.23
2018-06-03T10:50:00.610Z,8.10
2018-06-03T10:52:29.392Z,7.63
2018-06-03T10:54:58.671Z,8.60
2018-06-03T10:57:27.514Z,8.50
2018-06-03T10:59:56.544Z,9.00
2018-06-03T11:02:27.275Z,14.67
2018-06-03T11:04:56.425Z,13.10
2018-06-03T11:07:31.391Z,9.00
2018-06-03T11:10:00.208Z,10.77
2018-06-03T11:12:29.000Z,7.83
2018-06-03T11:14:57.746Z,7.47
2018-06-03T11:17:26.559Z,6.37
2018-06-03T11:19:55.331Z,6.87
2018-06-03T11:22:32.112Z,7.67
2018-06-03T11:25:00.933Z,8.03
2018-06-03T11:27:31.503Z,12.67
2018-06-03T11:30:00.423Z,8.70
2018-06-03T11:32:30.156Z,9.00
2018-06-03T11:34:59.171Z,11.17
2018-06-03T11:37:42.671Z,10.93
2018-06-03T11:40:11.525Z,8.50
2018-06-03T11:42:40.477Z,10.67
2018-06-03T11:45:09.211Z,9.97
2018-06-03T11:47:38.072Z,9.43
2018-06-03T11:50:06.929Z,12.80
2018-06-03T11:52:35.794Z,10.67
2018-06-03T11:55:05.751Z,8.50
2018-06-03T11:57:56.750Z,12.83
2018-06-03T12:00:25.611Z,15.57
2018-06-03T12:02:54.440Z,12.03
2018-06-03T12:05:23.192Z,19.43
2018-06-03T12:07:52.035Z,42.00
2018-06-03T12:10:20.801Z,11.03
2018-06-03T12:12:49.724Z,13.23
2018-06-03T12:15:18.475Z,10.77
2018-06-03T12:17:47.338Z,10.80
2018-06-03T12:20:16.176Z,9.33
2018-06-03T12:22:45.028Z,10.57
2018-06-03T12:25:13.857Z,11.53
2018-06-03T12:27:42.628Z,15.87
2018-06-03T12:30:11.500Z,10.10
2018-06-03T12:32:40.309Z,9.30
2018-06-03T12:35:09.042Z,12.80
2018-06-03T12:37:37.991Z,9.37
2018-06-03T12:40:06.748Z,9.23
2018-06-03T12:42:35.538Z,8.33
2018-06-03T12:45:04.315Z,9.23
2018-06-03T12:47:35.892Z,10.13
2018-06-03T12:50:04.814Z,12.63
2018-06-03T12:52:33.620Z,20.03
2018-06-03T12:55:02.495Z,13.63
2018-06-03T12:57:31.309Z,12.93
2018-06-03T13:00:00.564Z,13.03
2018-06-03T13:02:29.357Z,11.83
2018-06-03T13:04:58.229Z,12.43
2018-06-03T13:07:27.047Z,14.77
2018-06-03T13:09:55.973Z,11.90
2018-06-03T13:12:25.575Z,16.47
2018-06-03T13:14:54.441Z,13.83
2018-06-03T13:17:23.314Z,13.10
2018-06-03T13:19:52.261Z,11.23
2018-06-03T13:22:21.151Z,15.20
2018-06-03T13:24:49.924Z,10.57
2018-06-03T13:27:19.403Z,10.90
2018-06-03T13:29:48.331Z,13.50
2018-06-03T13:32:17.111Z,10.60
2018-06-03T13:34:45.891Z,12.87
2018-06-03T13:37:14.673Z,14.13
2018-06-03T13:39:43.499Z,12.90
2018-06-03T13:42:12.266Z,13.77
2018-06-03T13:44:41.989Z,13.83
2018-06-03T13:47:10.851Z,13.90
2018-06-03T13:49:39.652Z,17.20
2018-06-03T13:52:08.463Z,14.83
2018-06-03T13:54:37.246Z,13.67
2018-06-03T13:57:06.787Z,15.77
2018-06-03T13:59:35.605Z,10.57
2018-06-03T14:02:04.436Z,12.87
2018-06-03T14:04:33.211Z,12.40
2018-06-03T14:07:02.035Z,14.90
2018-06-03T14:09:30.807Z,11.50
2018-06-03T14:11:59.619Z,13.83
2018-06-03T14:14:28.396Z,13.37
2018-06-03T14:16:57.216Z,13.97
2018-06-03T14:19:26.287Z,16.00
2018-06-03T14:21:55.283Z,15.70
2018-06-03T14:24:24.035Z,16.60
2018-06-03T14:26:52.913Z,22.20
2018-06-03T14:29:28.162Z,16.13
2018-06-03T14:31:56.935Z,23.00
2018-06-03T14:34:25.875Z,21.87
2018-06-03T14:36:54.675Z,17.97
2018-06-03T14:39:23.522Z,16.33
2018-06-03T14:41:52.308Z,16.73
2018-06-03T14:44:21.086Z,17.73
2018-06-03T14:46:50.573Z,17.17
2018-06-03T14:49:19.389Z,19.87
2018-06-03T14:51:48.143Z,17.40
2018-06-03T14:54:16.929Z,18.87
2018-06-03T14:56:45.684Z,20.17
2018-06-03T14:59:16.307Z,17.10
2018-06-03T15:01:45.097Z,18.67
2018-06-03T15:04:13.931Z,19.93
2018-06-03T15:06:42.759Z,18.47
2018-06-03T15:09:11.961Z,17.60
2018-06-03T15:11:40.791Z,17.30
2018-06-03T15:14:09.602Z,16.53
2018-06-03T15:16:38.464Z,17.07
2018-06-03T15:19:08.235Z,16.30
2018-06-03T15:21:37.044Z,16.20
2018-06-03T15:24:06.076Z,18.00
2018-06-03T15:26:34.878Z,17.37
2018-06-03T15:29:03.653Z,15.80
2018-06-03T15:31:32.503Z,14.93
2018-06-03T15:34:01.267Z,25.93
2018-06-03T15:36:30.237Z,17.43
2018-06-03T15:38:59.116Z,19.97
2018-06-03T15:41:28.005Z,17.37
2018-06-03T15:43:56.896Z,18.17
2018-06-03T15:46:26.570Z,18.30
2018-06-03T15:48:55.456Z,17.77
2018-06-03T15:51:24.222Z,17.47
2018-06-03T15:53:53.007Z,19.23
2018-06-03T15:56:21.804Z,18.03
2018-06-03T15:58:50.664Z,18.97
2018-06-03T16:01:19.436Z,19.30
2018-06-03T16:03:49.287Z,18.27
2018-06-03T16:06:18.085Z,18.67
2018-06-03T16:08:46.852Z,18.77
2018-06-03T16:11:15.733Z,18.43
2018-06-03T16:13:44.567Z,19.27
2018-06-03T16:16:13.392Z,22.17
2018-06-03T16:18:42.382Z,18.43
2018-06-03T16:21:11.167Z,19.07
2018-06-03T16:23:40.083Z,18.67
2018-06-03T16:26:08.935Z,19.43
2018-06-03T16:28:37.943Z,18.87
2018-06-03T16:31:06.816Z,21.30
2018-06-03T16:33:35.608Z,19.63
2018-06-03T16:36:04.404Z,19.23
2018-06-03T16:38:38.057Z,20.03
2018-06-03T16:41:07.381Z,19.20
2018-06-03T16:43:36.859Z,19.93
2018-06-03T16:46:06.039Z,22.13
2018-06-03T16:48:34.906Z,20.47
2018-06-03T16:51:03.863Z,20.63
2018-06-03T16:53:32.712Z,21.83
2018-06-03T16:56:01.561Z,26.17
2018-06-03T16:58:30.875Z,22.47
2018-06-03T17:00:59.707Z,21.93
2018-06-03T17:03:28.535Z,22.67
2018-06-03T17:06:00.105Z,22.10
2018-06-03T17:08:29.119Z,24.57
2018-06-03T17:10:57.986Z,27.03
2018-06-03T17:13:26.756Z,21.70
2018-06-03T17:15:55.538Z,23.47
2018-06-03T17:18:25.078Z,31.13
2018-06-03T17:20:54.734Z,53.83
2018-06-03T17:23:23.685Z,44.53
2018-06-03T17:25:52.477Z,105.40
2018-06-03T17:28:21.259Z,120.47
2018-06-03T17:30:50.159Z,105.27
2018-06-03T17:33:18.911Z,50.97
2018-06-03T17:35:47.703Z,24.13
2018-06-03T17:38:17.109Z,25.23
2018-06-03T17:40:47.645Z,29.33
2018-06-03T17:43:16.464Z,23.87
2018-06-03T17:45:45.224Z,27.27
2018-06-03T17:48:13.964Z,25.67
2018-06-03T17:50:42.767Z,26.33
2018-06-03T17:53:11.998Z,26.23
2018-06-03T17:55:40.808Z,25.20
2018-06-03T17:58:09.744Z,31.20
2018-06-03T18:00:38.555Z,26.07
2018-06-03T18:03:07.392Z,29.37
2018-06-03T18:05:36.190Z,25.87
2018-06-03T18:08:05.020Z,25.70
2018-06-03T18:10:33.813Z,24.70
2018-06-03T18:13:03.466Z,24.13
2018-06-03T18:15:32.304Z,21.90
2018-06-03T18:18:01.108Z,22.73
2018-06-03T18:20:30.269Z,25.03
2018-06-03T18:23:00.957Z,22.90
2018-06-03T18:25:29.743Z,22.47
2018-06-03T18:28:04.631Z,22.30
2018-06-03T18:30:33.347Z,24.17
2018-06-03T18:33:02.333Z,23.70
2018-06-03T18:35:31.227Z,22.67
2018-06-03T18:37:59.987Z,22.63
2018-06-03T18:40:28.833Z,24.83
2018-06-03T18:42:57.582Z,19.93
2018-06-03T18:45:26.413Z,22.80
2018-06-03T18:47:55.269Z,22.37
2018-06-03T18:50:24.014Z,21.17
2018-06-03T18:52:52.821Z,19.10
2018-06-03T18:55:21.597Z,20.17
2018-06-03T18:57:50.387Z,20.40
2018-06-03T19:00:19.180Z,20.43
2018-06-03T19:02:48.074Z,21.90
2018-06-03T19:05:16.807Z,22.07
2018-06-03T19:10:23.106Z,53.43
2018-06-03T19:12:51.936Z,64.77
2018-06-03T19:15:20.746Z,61.97
2018-06-03T19:17:49.579Z,27.13
2018-06-03T19:20:18.335Z,26.97
2018-06-03T19:22:47.527Z,28.60
2018-06-03T19:25:16.447Z,104.67
2018-06-03T19:27:45.258Z,57.57
2018-06-03T19:30:16.952Z,27.10
2018-06-03T19:32:45.715Z,33.37
2018-06-03T19:35:14.644Z,25.57
2018-06-03T19:37:43.479Z,26.63
2018-06-03T19:40:12.268Z,24.07
2018-06-03T19:42:40.999Z,25.37
2018-06-03T19:45:10.208Z,23.43
2018-06-03T19:47:39.017Z,25.77
2018-06-03T19:50:07.800Z,25.43
2018-06-03T19:52:36.528Z,25.00
2018-06-03T19:55:08.331Z,24.37
2018-06-03T19:57:37.139Z,30.67
2018-06-03T20:00:08.933Z,27.83
2018-06-03T20:02:41.357Z,25.40
2018-06-03T20:05:10.421Z,27.50
2018-06-03T20:07:40.945Z,28.60
2018-06-03T20:10:12.948Z,25.30
2018-06-03T20:12:41.990Z,24.60
2018-06-03T20:15:10.867Z,25.20
2018-06-03T20:17:39.714Z,29.73
2018-06-03T20:20:09.005Z,25.73
2018-06-03T20:22:39.374Z,23.90
2018-06-03T20:25:08.418Z,26.53
2018-06-03T20:27:37.422Z,25.43
2018-06-03T20:30:07.534Z,26.70
2018-06-03T20:32:36.376Z,24.43
2018-06-03T20:35:05.194Z,25.67
2018-06-03T20:37:33.976Z,23.73
2018-06-03T20:40:02.780Z,25.03
2018-06-03T20:42:31.626Z,24.00
2018-06-03T20:45:00.627Z,25.07
2018-06-03T20:47:29.391Z,25.63
2018-06-03T20:49:58.148Z,26.13
2018-06-03T20:52:26.973Z,24.53
2018-06-03T20:54:55.743Z,24.63
2018-06-03T20:57:24.560Z,24.30
2018-06-03T20:59:53.494Z,24.80
2018-06-03T21:02:22.230Z,25.77
2018-06-03T21:04:51.201Z,24.53
2018-06-03T21:07:19.970Z,25.40
2018-06-03T21:09:48.815Z,23.83
2018-06-03T21:12:18.440Z,27.93
2018-06-03T21:14:47.208Z,23.03
2018-06-03T21:17:16.179Z,23.50
2018-06-03T21:19:44.921Z,23.40
2018-06-03T21:22:14.388Z,25.03
2018-06-03T21:24:43.167Z,22.87
2018-06-03T21:27:11.934Z,25.87
2018-06-03T21:29:40.714Z,22.40
2018-06-03T21:32:09.474Z,23.30
2018-06-03T21:34:38.287Z,22.63
2018-06-03T21:37:07.110Z,21.80
2018-06-03T21:39:35.869Z,20.00
2018-06-03T21:42:04.699Z,23.47
2018-06-03T21:44:33.473Z,20.17
2018-06-03T21:47:02.263Z,18.90
2018-06-03T21:49:31.000Z,20.50
2018-06-03T21:52:00.102Z,20.97
2018-06-03T21:54:28.863Z,19.73
2018-06-03T21:56:57.643Z,20.93
2018-06-03T21:59:26.674Z,17.77
2018-06-03T22:01:55.456Z,19.50
2018-06-03T22:04:24.182Z,19.43
2018-06-03T22:06:52.923Z,16.63
2018-06-03T22:09:21.666Z,17.10
2018-06-03T22:11:50.458Z,15.83
2018-06-03T22:14:19.230Z,17.43
2018-06-03T22:16:48.055Z,18.73
2018-06-03T22:19:16.835Z,17.60
2018-06-03T22:21:45.599Z,15.20
2018-06-03T22:24:14.354Z,15.80
2018-06-03T22:26:43.119Z,16.13
2018-06-03T22:29:11.853Z,15.70
2018-06-03T22:31:40.616Z,14.90
2018-06-03T22:34:09.384Z,18.00
2018-06-03T22:36:38.090Z,15.57
2018-06-03T22:39:09.189Z,14.87
2018-06-03T22:41:37.933Z,14.37
2018-06-03T22:44:06.682Z,17.27
2018-06-03T22:46:35.453Z,15.80
2018-06-03T22:49:04.212Z,15.97
2018-06-03T22:51:32.940Z,14.77
2018-06-03T22:54:01.787Z,15.00
2018-06-03T22:56:41.521Z,14.57
2018-06-03T22:59:10.269Z,14.23
2018-06-03T23:01:39.020Z,14.37
2018-06-03T23:04:07.796Z,15.30
2018-06-03T23:06:36.586Z,14.57
2018-06-03T23:09:06.704Z,15.37
2018-06-03T23:11:35.628Z,14.93
2018-06-03T23:14:04.466Z,15.07
2018-06-03T23:16:33.183Z,14.43
2018-06-03T23:19:02.043Z,14.13
2018-06-03T23:21:31.074Z,14.53
2018-06-03T23:24:00.296Z,13.33
2018-06-03T23:26:29.051Z,14.00
2018-06-03T23:28:57.824Z,13.63
2018-06-03T23:31:26.559Z,14.73
2018-06-03T23:33:55.311Z,12.67
2018-06-03T23:36:24.255Z,13.53
2018-06-03T23:38:53.055Z,12.83
2018-06-03T23:41:21.980Z,13.10
2018-06-03T23:43:50.838Z,13.80
2018-06-03T23:46:19.573Z,12.23
2018-06-03T23:48:48.567Z,14.03
2018-06-03T23:51:17.330Z,12.07
2018-06-03T23:53:46.130Z,12.20
2018-06-03T23:56:14.882Z,10.50
2018-06-03T23:58:43.605Z,11.10
